createdAt,value
2019-03-13T00:01:54.426Z,4.80
2019-03-13T00:04:23.868Z,4.80
2019-03-13T00:06:53.411Z,4.80
2019-03-13T00:09:22.938Z,4.80
2019-03-13T00:11:52.424Z,4.80
2019-03-13T00:14:21.962Z,4.80
2019-03-13T00:16:51.467Z,4.80
2019-03-13T00:19:20.919Z,4.70
2019-03-13T00:21:50.480Z,4.70
2019-03-13T00:24:20.016Z,4.70
2019-03-13T00:26:50.122Z,4.70
2019-03-13T00:29:19.867Z,4.80
2019-03-13T00:31:49.364Z,4.80
2019-03-13T00:34:18.946Z,5.00
2019-03-13T00:36:48.368Z,5.00
2019-03-13T00:39:18.289Z,5.00
2019-03-13T00:41:47.753Z,5.10
2019-03-13T00:44:17.338Z,5.10
2019-03-13T00:46:46.842Z,5.10
2019-03-13T00:49:16.316Z,5.10
2019-03-13T00:51:45.792Z,5.10
2019-03-13T00:54:15.219Z,5.10
2019-03-13T00:56:44.659Z,5.10
2019-03-13T00:59:14.138Z,5.10
2019-03-13T01:01:53.456Z,5.20
2019-03-13T01:04:32.248Z,5.20
2019-03-13T01:07:04.226Z,5.20
2019-03-13T01:09:33.794Z,5.20
2019-03-13T01:12:04.486Z,5.20
2019-03-13T01:14:33.990Z,5.30
2019-03-13T01:17:03.455Z,5.30
2019-03-13T01:19:32.933Z,5.30
2019-03-13T01:22:02.359Z,5.30
2019-03-13T01:24:31.812Z,5.30
2019-03-13T01:27:01.712Z,5.30
2019-03-13T01:29:31.213Z,5.20
2019-03-13T01:32:22.539Z,5.20
2019-03-13T01:35:05.730Z,5.10
2019-03-13T01:37:35.212Z,5.10
2019-03-13T01:40:05.281Z,5.10
2019-03-13T01:42:34.791Z,5.20
2019-03-13T01:45:04.705Z,5.10
2019-03-13T01:47:34.181Z,5.00
2019-03-13T01:50:03.814Z,5.00
2019-03-13T01:52:33.254Z,5.00
2019-03-13T01:55:02.720Z,4.90
2019-03-13T01:57:32.162Z,4.90
2019-03-13T02:00:01.660Z,4.90
2019-03-13T02:02:31.151Z,4.90
2019-03-13T02:05:01.733Z,5.00
2019-03-13T02:07:31.286Z,5.00
2019-03-13T02:10:00.728Z,5.10
2019-03-13T02:12:30.558Z,5.10
2019-03-13T02:14:59.992Z,5.10
2019-03-13T02:17:29.512Z,5.10
2019-03-13T02:19:59.027Z,5.10
2019-03-13T02:22:28.692Z,5.10
2019-03-13T02:24:58.198Z,5.10
2019-03-13T02:27:27.726Z,5.10
2019-03-13T02:29:57.205Z,5.10
2019-03-13T02:32:26.698Z,5.10
2019-03-13T02:34:56.183Z,5.10
2019-03-13T02:37:25.617Z,5.10
2019-03-13T02:39:55.154Z,5.10
2019-03-13T02:42:24.678Z,5.20
2019-03-13T02:44:54.134Z,5.30
2019-03-13T02:47:23.687Z,5.30
2019-03-13T02:49:53.165Z,5.30
2019-03-13T02:52:22.640Z,5.30
2019-03-13T02:54:52.062Z,5.30
2019-03-13T02:57:21.549Z,5.40
2019-03-13T02:59:51.026Z,5.50
2019-03-13T03:02:37.367Z,5.50
2019-03-13T03:05:07.372Z,5.50
2019-03-13T03:07:36.827Z,5.50
2019-03-13T03:10:06.775Z,5.60
2019-03-13T03:12:36.302Z,5.60
2019-03-13T03:15:17.123Z,5.60
2019-03-13T03:17:46.664Z,5.60
2019-03-13T03:20:17.900Z,5.60
2019-03-13T03:22:47.376Z,5.60
2019-03-13T03:25:19.948Z,5.60
2019-03-13T03:27:49.484Z,5.60
2019-03-13T03:30:21.115Z,5.60
2019-03-13T03:32:50.713Z,5.60
2019-03-13T03:35:20.350Z,5.60
2019-03-13T03:37:49.813Z,5.60
2019-03-13T03:40:22.650Z,5.50
2019-03-13T03:42:50.765Z,5.60
2019-03-13T03:45:20.404Z,5.70
2019-03-13T03:47:49.915Z,5.70
2019-03-13T03:50:19.612Z,5.80
2019-03-13T03:52:49.118Z,5.80
2019-03-13T03:55:18.678Z,5.80
2019-03-13T03:57:48.159Z,5.80
2019-03-13T04:00:17.725Z,5.90
2019-03-13T04:02:47.223Z,5.90
2019-03-13T04:05:16.792Z,5.90
2019-03-13T04:07:46.362Z,5.90
2019-03-13T04:10:16.056Z,5.90
2019-03-13T04:12:45.694Z,5.90
2019-03-13T04:15:15.517Z,5.90
2019-03-13T04:17:45.162Z,6.00
2019-03-13T04:20:14.863Z,6.00
2019-03-13T04:22:44.565Z,6.00
2019-03-13T04:25:34.539Z,6.00
2019-03-13T04:28:04.433Z,6.00
2019-03-13T04:30:34.465Z,6.00
2019-03-13T04:33:03.953Z,6.00
2019-03-13T04:35:33.686Z,6.00
2019-03-13T04:38:03.180Z,6.00
2019-03-13T04:40:32.644Z,6.00
2019-03-13T04:43:02.171Z,6.00
2019-03-13T04:45:32.988Z,6.00
2019-03-13T04:48:02.603Z,6.00
2019-03-13T04:50:32.090Z,6.00
2019-03-13T04:53:01.666Z,6.10
2019-03-13T04:55:31.196Z,6.10
2019-03-13T04:58:01.499Z,6.00
2019-03-13T05:00:31.028Z,6.10
2019-03-13T05:03:00.605Z,6.10
2019-03-13T05:05:58.409Z,6.10
2019-03-13T05:08:57.247Z,6.10
2019-03-13T05:11:26.706Z,6.00
2019-03-13T05:13:56.430Z,6.00
2019-03-13T05:16:25.864Z,6.00
2019-03-13T05:18:55.354Z,6.10
2019-03-13T05:21:25.245Z,6.10
2019-03-13T05:23:54.851Z,6.10
2019-03-13T05:26:24.329Z,6.10
2019-03-13T05:28:53.833Z,6.20
2019-03-13T05:31:23.351Z,6.10
2019-03-13T05:33:52.884Z,6.10
2019-03-13T05:36:22.429Z,6.20
2019-03-13T05:38:51.812Z,6.10
2019-03-13T05:41:43.826Z,6.10
2019-03-13T05:44:13.374Z,6.20
2019-03-13T05:46:42.864Z,6.20
2019-03-13T05:49:12.327Z,6.20
2019-03-13T05:51:41.912Z,6.20
2019-03-13T05:54:11.414Z,6.30
2019-03-13T05:56:41.049Z,6.30
2019-03-13T05:59:10.679Z,6.30
2019-03-13T06:01:40.152Z,6.30
2019-03-13T06:04:09.664Z,6.40
2019-03-13T06:06:39.068Z,6.40
2019-03-13T06:09:08.970Z,6.40
2019-03-13T06:11:38.517Z,6.40
2019-03-13T06:14:07.970Z,6.40
2019-03-13T06:16:37.470Z,6.40
2019-03-13T06:19:07.012Z,6.40
2019-03-13T06:21:36.482Z,6.50
2019-03-13T06:24:06.077Z,6.40
2019-03-13T06:26:35.516Z,6.40
2019-03-13T06:29:05.020Z,6.40
2019-03-13T06:31:34.524Z,6.50
2019-03-13T06:34:04.097Z,6.50
2019-03-13T06:36:33.641Z,6.40
2019-03-13T06:39:03.854Z,6.50
2019-03-13T06:41:33.306Z,6.50
2019-03-13T06:44:02.914Z,6.50
2019-03-13T06:46:32.378Z,6.50
2019-03-13T06:49:01.831Z,6.50
2019-03-13T06:51:31.262Z,6.60
2019-03-13T06:54:00.738Z,6.60
2019-03-13T06:56:30.246Z,6.60
2019-03-13T06:59:22.681Z,6.50
2019-03-13T07:02:11.067Z,6.30
2019-03-13T07:04:59.466Z,6.20
2019-03-13T07:07:36.395Z,6.20
2019-03-13T07:10:19.213Z,6.20
2019-03-13T07:13:10.605Z,6.20
2019-03-13T07:15:47.647Z,6.30
2019-03-13T07:18:24.982Z,6.30
2019-03-13T07:21:10.539Z,6.30
2019-03-13T07:24:04.950Z,6.40
2019-03-13T07:26:42.171Z,6.30
2019-03-13T07:29:33.751Z,6.10
2019-03-13T07:32:28.336Z,6.00
2019-03-13T07:35:14.430Z,6.10
2019-03-13T07:38:02.863Z,6.10
2019-03-13T07:40:53.942Z,6.10
2019-03-13T07:43:40.737Z,6.10
2019-03-13T07:46:35.033Z,6.10
2019-03-13T07:49:38.535Z,6.10
2019-03-13T07:52:22.986Z,6.10
2019-03-13T07:55:14.696Z,6.20
2019-03-13T07:58:09.256Z,6.30
2019-03-13T08:01:06.818Z,6.40
2019-03-13T08:03:50.787Z,6.50
2019-03-13T08:06:40.586Z,6.60
2019-03-13T08:09:26.812Z,6.50
2019-03-13T08:12:14.934Z,6.50
2019-03-13T08:15:01.260Z,6.60
2019-03-13T08:17:41.801Z,6.60
2019-03-13T08:20:42.148Z,6.70
2019-03-13T08:23:36.634Z,6.80
2019-03-13T08:26:17.160Z,6.90
2019-03-13T08:29:20.778Z,7.00
2019-03-13T08:32:06.486Z,7.00
2019-03-13T08:34:58.108Z,7.10
2019-03-13T08:37:45.898Z,6.90
2019-03-13T08:40:37.204Z,6.90
2019-03-13T08:43:23.946Z,6.80
2019-03-13T08:46:12.854Z,6.90
2019-03-13T08:48:52.143Z,6.90
2019-03-13T08:51:52.649Z,6.90
2019-03-13T08:54:36.802Z,7.00
2019-03-13T08:57:43.539Z,6.90
2019-03-13T09:00:41.320Z,6.90
2019-03-13T09:03:32.357Z,7.00
2019-03-13T09:06:12.516Z,6.90
2019-03-13T09:09:00.038Z,6.90
2019-03-13T09:11:48.718Z,6.90
2019-03-13T09:14:40.011Z,6.90
2019-03-13T09:17:49.081Z,6.90
2019-03-13T09:20:27.205Z,7.00
2019-03-13T09:23:14.344Z,7.00
2019-03-13T09:26:01.363Z,6.80
2019-03-13T09:28:41.512Z,7.00
2019-03-13T09:31:26.869Z,7.00
2019-03-13T09:34:09.331Z,7.00
2019-03-13T09:36:57.883Z,7.00
2019-03-13T09:39:45.433Z,7.10
2019-03-13T09:42:42.933Z,7.10
2019-03-13T09:45:29.746Z,7.10
2019-03-13T09:48:13.826Z,7.30
2019-03-13T09:50:49.126Z,7.30
2019-03-13T09:53:26.571Z,7.40
2019-03-13T09:56:04.424Z,7.30
2019-03-13T09:58:42.725Z,7.00
2019-03-13T10:01:43.182Z,7.10
2019-03-13T10:04:37.773Z,7.10
2019-03-13T10:07:17.775Z,7.10
2019-03-13T10:10:06.226Z,7.00
2019-03-13T10:12:57.392Z,7.00
2019-03-13T10:15:35.197Z,6.90
2019-03-13T10:18:16.962Z,6.80
2019-03-13T10:20:57.394Z,6.80
2019-03-13T10:23:57.797Z,6.70
2019-03-13T10:26:43.235Z,6.70
2019-03-13T10:29:35.991Z,6.70
2019-03-13T10:32:36.574Z,6.70
2019-03-13T10:35:43.055Z,6.70
2019-03-13T10:38:31.656Z,6.80
2019-03-13T10:41:20.224Z,6.80
2019-03-13T10:44:17.374Z,6.70
2019-03-13T10:46:55.052Z,6.70
2019-03-13T10:49:55.515Z,6.60
2019-03-13T10:52:46.727Z,6.70
2019-03-13T10:55:29.895Z,6.70
2019-03-13T10:58:06.225Z,6.90
2019-03-13T11:00:40.752Z,7.00
2019-03-13T11:03:32.399Z,6.90
2019-03-13T11:06:13.896Z,6.90
2019-03-13T11:09:07.521Z,7.00
2019-03-13T11:12:02.254Z,7.00
2019-03-13T11:14:41.369Z,7.10
2019-03-13T11:17:21.879Z,7.10
2019-03-13T11:20:01.010Z,7.10
2019-03-13T11:22:52.631Z,7.10
2019-03-13T11:25:56.441Z,7.20
2019-03-13T11:28:45.065Z,7.20
2019-03-13T11:31:32.170Z,7.20
2019-03-13T11:34:20.793Z,7.20
2019-03-13T11:37:21.824Z,7.10
2019-03-13T11:40:13.601Z,7.20
2019-03-13T11:42:57.509Z,7.30
2019-03-13T11:45:44.515Z,7.30
2019-03-13T11:48:31.542Z,7.40
2019-03-13T11:51:19.158Z,7.40
2019-03-13T11:54:07.619Z,7.60
2019-03-13T11:57:01.774Z,7.60
2019-03-13T11:59:53.196Z,7.50
2019-03-13T12:02:41.880Z,7.60
2019-03-13T12:05:25.262Z,7.60
2019-03-13T12:08:02.440Z,7.70
2019-03-13T12:10:40.610Z,7.70
2019-03-13T12:13:35.069Z,7.70
2019-03-13T12:16:29.558Z,7.60
2019-03-13T12:19:07.576Z,7.40
2019-03-13T12:21:45.183Z,7.40
2019-03-13T12:24:32.471Z,7.20
2019-03-13T12:27:16.375Z,7.20
2019-03-13T12:30:10.772Z,7.10
2019-03-13T12:33:06.584Z,7.00
2019-03-13T12:36:01.258Z,7.00
2019-03-13T12:38:42.566Z,6.90
2019-03-13T12:41:31.279Z,6.90
2019-03-13T12:44:22.508Z,6.80
2019-03-13T12:47:08.572Z,6.70
2019-03-13T12:49:55.619Z,6.60
2019-03-13T12:52:54.083Z,6.60
2019-03-13T12:55:32.180Z,6.50
2019-03-13T12:58:21.111Z,6.50
2019-03-13T13:01:09.583Z,6.50
2019-03-13T13:03:58.355Z,6.50
2019-03-13T13:06:34.697Z,6.30
2019-03-13T13:09:25.376Z,6.30
2019-03-13T13:12:20.003Z,6.30
2019-03-13T13:15:14.388Z,6.20
2019-03-13T13:17:58.251Z,6.20
2019-03-13T13:20:28.125Z,6.20
2019-03-13T13:22:57.588Z,6.20
2019-03-13T13:25:27.447Z,6.10
2019-03-13T13:27:57.087Z,6.10
2019-03-13T13:30:27.207Z,6.10
2019-03-13T13:32:56.970Z,6.10
2019-03-13T13:35:26.912Z,6.20
2019-03-13T13:37:56.547Z,6.20
2019-03-13T13:40:26.159Z,6.20
2019-03-13T13:42:55.624Z,6.10
2019-03-13T13:46:18.524Z,6.10
2019-03-13T13:48:48.193Z,6.10
2019-03-13T13:51:18.031Z,6.10
2019-03-13T13:53:47.840Z,6.20
2019-03-13T13:56:17.965Z,6.20
2019-03-13T13:58:47.715Z,6.30
2019-03-13T14:01:17.346Z,6.20
2019-03-13T14:03:46.929Z,6.20
2019-03-13T14:06:17.406Z,6.20
2019-03-13T14:08:49.411Z,6.10
2019-03-13T14:11:19.020Z,6.10
2019-03-13T14:13:48.955Z,6.20
2019-03-13T14:16:18.629Z,6.20
2019-03-13T14:18:48.260Z,6.30
2019-03-13T14:21:17.860Z,6.20
2019-03-13T14:23:47.516Z,6.20
2019-03-13T14:26:17.145Z,6.20
2019-03-13T14:28:47.231Z,6.20
2019-03-13T14:31:17.113Z,6.30
2019-03-13T14:33:46.761Z,6.20
2019-03-13T14:36:16.440Z,6.30
2019-03-13T14:38:46.311Z,6.30
2019-03-13T14:41:15.975Z,6.30
2019-03-13T14:43:45.931Z,6.30
2019-03-13T14:46:16.375Z,6.40
2019-03-13T14:48:46.171Z,6.50
2019-03-13T14:51:15.919Z,6.60
2019-03-13T14:53:45.617Z,6.70
2019-03-13T14:56:15.347Z,6.70
2019-03-13T14:58:44.964Z,6.80
2019-03-13T15:01:14.601Z,6.90
2019-03-13T15:03:44.531Z,7.00
2019-03-13T15:06:14.071Z,7.00
2019-03-13T15:08:43.997Z,7.10
2019-03-13T15:11:13.701Z,7.10
2019-03-13T15:13:43.583Z,6.90
2019-03-13T15:16:13.415Z,7.00
2019-03-13T15:18:43.428Z,7.00
2019-03-13T15:21:13.129Z,7.00
2019-03-13T15:24:01.962Z,7.10
2019-03-13T15:26:32.606Z,7.00
2019-03-13T15:29:02.667Z,7.00
2019-03-13T15:31:34.824Z,7.00
2019-03-13T15:34:04.633Z,6.90
2019-03-13T15:36:34.310Z,6.80
2019-03-13T15:39:04.566Z,6.80
2019-03-13T15:41:34.345Z,6.70
2019-03-13T15:44:04.694Z,6.70
2019-03-13T15:46:34.407Z,6.70
2019-03-13T15:49:04.227Z,6.80
2019-03-13T15:51:38.745Z,6.70
2019-03-13T15:54:08.177Z,6.90
2019-03-13T15:56:38.155Z,6.80
2019-03-13T15:59:08.103Z,6.70
2019-03-13T16:01:37.762Z,6.60
2019-03-13T16:04:07.447Z,6.60
2019-03-13T16:06:37.456Z,6.50
2019-03-13T16:09:08.937Z,6.50
2019-03-13T16:11:38.689Z,6.50
2019-03-13T16:14:08.623Z,6.50
2019-03-13T16:16:38.285Z,6.50
2019-03-13T16:19:08.652Z,6.50
2019-03-13T16:21:39.282Z,6.60
2019-03-13T16:24:09.391Z,6.60
2019-03-13T16:26:42.855Z,6.60
2019-03-13T16:32:02.139Z,6.60
2019-03-13T16:34:38.255Z,6.60
2019-03-13T16:37:07.801Z,6.60
2019-03-13T16:39:37.804Z,6.70
2019-03-13T16:42:07.790Z,6.70
2019-03-13T16:44:37.519Z,6.70
2019-03-13T16:47:10.912Z,6.80
2019-03-13T16:49:40.451Z,6.80
2019-03-13T16:52:10.150Z,6.80
2019-03-13T16:54:39.842Z,6.80
2019-03-13T16:57:09.439Z,6.80
2019-03-13T16:59:39.039Z,6.80
2019-03-13T17:02:08.922Z,6.70
2019-03-13T17:04:38.370Z,6.70
2019-03-13T17:07:08.290Z,6.70
2019-03-13T17:09:38.540Z,6.70
2019-03-13T17:12:08.842Z,6.70
2019-03-13T17:14:38.393Z,6.70
2019-03-13T17:17:07.891Z,6.70
2019-03-13T17:19:37.548Z,6.70
2019-03-13T17:22:07.471Z,6.80
2019-03-13T17:24:37.021Z,6.80
2019-03-13T17:27:06.502Z,6.80
2019-03-13T17:29:35.991Z,6.80
2019-03-13T17:32:05.594Z,6.80
2019-03-13T17:34:35.375Z,6.80
2019-03-13T17:37:05.024Z,6.80
2019-03-13T17:39:34.673Z,6.70
2019-03-13T17:42:04.341Z,6.70
2019-03-13T17:44:33.949Z,6.70
2019-03-13T17:47:03.529Z,6.70
2019-03-13T17:49:33.131Z,6.70
2019-03-13T17:52:02.675Z,6.60
2019-03-13T17:54:32.212Z,6.70
2019-03-13T17:57:01.779Z,6.80
2019-03-13T17:59:31.325Z,6.90
2019-03-13T18:02:00.857Z,7.00
2019-03-13T18:04:30.531Z,6.80
2019-03-13T18:07:00.152Z,6.80
2019-03-13T18:09:29.635Z,6.70
2019-03-13T18:11:59.124Z,6.70
2019-03-13T18:14:31.996Z,6.60
2019-03-13T18:16:59.714Z,6.70
2019-03-13T18:19:29.206Z,6.70
2019-03-13T18:24:47.735Z,6.70
2019-03-13T18:27:17.230Z,6.70
2019-03-13T18:29:46.715Z,6.70
2019-03-13T18:32:20.565Z,6.90
2019-03-13T18:34:50.124Z,7.00
2019-03-13T18:37:19.800Z,7.00
2019-03-13T18:39:49.355Z,7.00
2019-03-13T18:42:18.954Z,7.00
2019-03-13T18:44:48.532Z,7.00
2019-03-13T18:47:17.999Z,7.00
2019-03-13T18:49:47.505Z,7.10
2019-03-13T18:52:17.100Z,7.00
2019-03-13T18:54:46.933Z,6.90
2019-03-13T18:57:18.555Z,6.90
2019-03-13T18:59:48.213Z,6.90
2019-03-13T19:02:17.953Z,6.90
2019-03-13T19:04:49.572Z,6.90
2019-03-13T19:07:18.949Z,6.90
2019-03-13T19:09:48.473Z,6.80
2019-03-13T19:12:18.270Z,6.80
2019-03-13T19:14:48.036Z,6.80
2019-03-13T19:17:17.727Z,6.80
2019-03-13T19:19:47.224Z,6.80
2019-03-13T19:22:16.961Z,6.90
2019-03-13T19:24:51.149Z,7.00
2019-03-13T19:27:20.932Z,6.90
2019-03-13T19:29:50.499Z,6.90
2019-03-13T19:32:20.167Z,6.90
2019-03-13T19:34:49.619Z,6.90
2019-03-13T19:37:19.245Z,6.90
2019-03-13T19:39:48.805Z,6.90
2019-03-13T19:42:18.312Z,7.00
2019-03-13T19:44:47.921Z,7.00
2019-03-13T19:47:17.407Z,7.00
2019-03-13T19:49:47.025Z,7.10
2019-03-13T19:52:16.584Z,7.10
2019-03-13T19:54:48.464Z,7.00
2019-03-13T19:57:17.946Z,7.10
2019-03-13T19:59:47.425Z,7.00
2019-03-13T20:02:16.911Z,7.00
2019-03-13T20:04:47.464Z,6.90
2019-03-13T20:07:17.406Z,6.90
2019-03-13T20:09:46.914Z,6.90
2019-03-13T20:12:16.326Z,6.90
2019-03-13T20:14:45.756Z,6.80
2019-03-13T20:17:16.287Z,6.90
2019-03-13T20:19:46.124Z,6.90
2019-03-13T20:22:15.555Z,6.90
2019-03-13T20:24:45.028Z,6.80
2019-03-13T20:27:14.592Z,6.80
2019-03-13T20:29:44.150Z,6.90
2019-03-13T20:32:13.766Z,6.80
2019-03-13T20:34:43.424Z,6.90
2019-03-13T20:37:13.032Z,6.90
2019-03-13T20:39:42.615Z,6.90
2019-03-13T20:42:12.125Z,6.80
2019-03-13T20:44:41.592Z,6.90
2019-03-13T20:47:11.132Z,6.80
2019-03-13T20:49:40.610Z,6.80
2019-03-13T20:52:10.170Z,6.80
2019-03-13T20:54:39.695Z,6.70
2019-03-13T20:57:09.633Z,6.70
2019-03-13T20:59:39.164Z,6.70
2019-03-13T21:02:08.862Z,6.70
2019-03-13T21:04:38.351Z,6.70
2019-03-13T21:07:08.044Z,6.80
2019-03-13T21:09:37.867Z,6.80
2019-03-13T21:12:07.773Z,6.80
2019-03-13T21:14:37.926Z,6.80
2019-03-13T21:17:07.509Z,6.90
2019-03-13T21:19:37.035Z,6.90
2019-03-13T21:22:06.769Z,7.00
2019-03-13T21:24:36.356Z,7.00
2019-03-13T21:27:06.124Z,7.00
2019-03-13T21:29:35.613Z,7.00
2019-03-13T21:32:05.088Z,6.90
2019-03-13T21:34:34.554Z,6.90
2019-03-13T21:37:04.015Z,6.90
2019-03-13T21:39:34.073Z,7.00
2019-03-13T21:42:03.576Z,6.90
2019-03-13T21:44:33.097Z,6.90
2019-03-13T21:47:02.584Z,6.90
2019-03-13T21:49:32.097Z,6.90
2019-03-13T21:52:01.620Z,6.90
2019-03-13T21:54:31.134Z,6.90
2019-03-13T22:00:03.717Z,6.80
2019-03-13T22:02:37.816Z,6.90
2019-03-13T22:05:07.333Z,6.90
2019-03-13T22:07:37.135Z,6.90
2019-03-13T22:10:07.768Z,6.90
2019-03-13T22:12:37.371Z,6.90
2019-03-13T22:15:26.253Z,6.90
2019-03-13T22:17:55.766Z,6.90
2019-03-13T22:20:25.279Z,6.90
2019-03-13T22:22:58.339Z,6.90
2019-03-13T22:25:31.464Z,6.90
2019-03-13T22:28:20.952Z,6.90
2019-03-13T22:30:50.586Z,6.90
2019-03-13T22:33:22.024Z,6.80
2019-03-13T22:36:12.358Z,6.70
2019-03-13T22:38:46.714Z,6.70
2019-03-13T22:41:16.343Z,6.70
2019-03-13T22:43:45.985Z,6.70
2019-03-13T22:46:16.870Z,6.60
2019-03-13T22:48:57.628Z,6.60
2019-03-13T22:51:20.157Z,6.60
2019-03-13T22:53:49.803Z,6.60
2019-03-13T22:56:19.675Z,6.60
2019-03-13T22:58:49.313Z,6.60
2019-03-13T23:01:19.955Z,6.60
2019-03-13T23:03:50.611Z,6.60
2019-03-13T23:06:20.321Z,6.60
2019-03-13T23:08:50.952Z,6.60
2019-03-13T23:11:20.813Z,6.60
2019-03-13T23:13:50.541Z,6.70
2019-03-13T23:16:23.551Z,6.70
2019-03-13T23:18:52.040Z,6.60
2019-03-13T23:21:22.073Z,6.60
2019-03-13T23:23:52.100Z,6.50
2019-03-13T23:26:21.727Z,6.40
2019-03-13T23:28:51.269Z,6.50
2019-03-13T23:31:21.037Z,6.40
2019-03-13T23:33:50.682Z,6.30
2019-03-13T23:36:20.260Z,6.20
2019-03-13T23:38:49.986Z,6.30
2019-03-13T23:41:19.808Z,6.30
2019-03-13T23:43:49.979Z,6.20
2019-03-13T23:46:19.733Z,6.20
2019-03-13T23:48:49.785Z,6.10
2019-03-13T23:51:19.509Z,6.10
2019-03-13T23:53:49.422Z,6.10
2019-03-13T23:56:19.045Z,6.00
2019-03-13T23:58:48.811Z,5.90
